createdAt,value
2019-05-13T00:01:54.016Z,12.40
2019-05-13T00:04:25.743Z,12.40
2019-05-13T00:06:57.768Z,12.40
2019-05-13T00:09:29.482Z,12.40
2019-05-13T00:12:00.692Z,12.40
2019-05-13T00:14:34.286Z,12.50
2019-05-13T00:17:05.261Z,12.50
2019-05-13T00:19:35.542Z,12.50
2019-05-13T00:22:06.540Z,12.50
2019-05-13T00:24:37.780Z,12.60
2019-05-13T00:27:09.110Z,12.50
2019-05-13T00:29:40.948Z,12.60
2019-05-13T00:32:13.420Z,12.50
2019-05-13T00:34:44.527Z,12.50
2019-05-13T00:37:16.750Z,12.40
2019-05-13T00:39:48.341Z,12.40
2019-05-13T00:42:19.578Z,12.50
2019-05-13T00:44:53.126Z,12.50
2019-05-13T00:47:24.048Z,12.50
2019-05-13T00:49:55.344Z,12.50
2019-05-13T00:52:27.555Z,12.40
2019-05-13T00:54:59.259Z,12.50
2019-05-13T00:57:30.852Z,12.50
2019-05-13T01:00:03.507Z,12.50
2019-05-13T01:02:35.280Z,12.60
2019-05-13T01:05:06.635Z,12.50
2019-05-13T01:07:37.849Z,12.50
2019-05-13T01:10:10.282Z,12.50
2019-05-13T01:12:43.825Z,12.40
2019-05-13T01:15:15.578Z,12.50
2019-05-13T01:17:46.823Z,12.50
2019-05-13T01:20:18.325Z,12.50
2019-05-13T01:22:49.609Z,12.40
2019-05-13T01:25:21.106Z,12.50
2019-05-13T01:27:53.707Z,12.50
2019-05-13T01:30:25.166Z,12.50
2019-05-13T01:32:57.030Z,12.40
2019-05-13T01:35:27.144Z,12.40
2019-05-13T01:37:58.273Z,12.40
2019-05-13T01:40:29.535Z,12.40
2019-05-13T01:43:03.602Z,12.40
2019-05-13T01:45:34.390Z,12.40
2019-05-13T01:48:07.389Z,12.50
2019-05-13T01:50:38.497Z,12.40
2019-05-13T01:53:09.730Z,12.40
2019-05-13T01:55:40.897Z,12.40
2019-05-13T01:58:14.406Z,12.40
2019-05-13T02:00:45.298Z,12.40
2019-05-13T02:03:16.566Z,12.40
2019-05-13T02:05:48.090Z,12.40
2019-05-13T02:08:19.650Z,12.30
2019-05-13T02:10:55.330Z,12.40
2019-05-13T02:13:26.885Z,12.30
2019-05-13T02:15:58.998Z,12.30
2019-05-13T02:18:30.599Z,12.30
2019-05-13T02:21:05.167Z,12.30
2019-05-13T02:23:35.135Z,12.30
2019-05-13T02:26:06.663Z,12.40
2019-05-13T02:28:38.143Z,12.30
2019-05-13T02:31:16.500Z,12.30
2019-05-13T02:33:43.121Z,12.30
2019-05-13T02:36:14.307Z,12.30
2019-05-13T02:38:47.537Z,12.40
2019-05-13T02:41:18.480Z,12.30
2019-05-13T02:43:52.656Z,12.40
2019-05-13T02:46:23.256Z,12.40
2019-05-13T02:48:54.441Z,12.40
2019-05-13T02:51:25.680Z,12.40
2019-05-13T02:53:57.354Z,12.40
2019-05-13T02:56:27.574Z,12.40
2019-05-13T02:58:58.604Z,12.30
2019-05-13T03:01:33.005Z,12.20
2019-05-13T03:04:03.393Z,12.20
2019-05-13T03:06:34.826Z,12.20
2019-05-13T03:09:07.987Z,12.20
2019-05-13T03:11:42.325Z,12.30
2019-05-13T03:14:13.369Z,12.30
2019-05-13T03:16:57.157Z,12.30
2019-05-13T03:19:28.727Z,12.20
2019-05-13T03:22:02.959Z,12.20
2019-05-13T03:24:33.403Z,12.20
2019-05-13T03:27:05.418Z,12.30
2019-05-13T03:29:36.727Z,12.40
2019-05-13T03:32:08.088Z,12.40
2019-05-13T03:34:44.731Z,12.40
2019-05-13T03:37:15.377Z,12.40
2019-05-13T03:39:47.570Z,12.40
2019-05-13T03:42:22.590Z,12.50
2019-05-13T03:44:55.891Z,12.50
2019-05-13T03:47:28.584Z,12.50
2019-05-13T03:50:03.541Z,12.50
2019-05-13T03:52:34.805Z,12.40
2019-05-13T03:55:06.954Z,12.30
2019-05-13T03:57:38.231Z,12.30
2019-05-13T04:00:13.205Z,12.20
2019-05-13T04:02:44.918Z,12.20
2019-05-13T04:05:17.169Z,12.30
2019-05-13T04:07:52.031Z,12.30
2019-05-13T04:10:23.213Z,12.40
2019-05-13T04:12:54.802Z,12.50
2019-05-13T04:15:26.701Z,12.40
2019-05-13T04:17:58.338Z,12.50
2019-05-13T04:20:32.990Z,12.50
2019-05-13T04:23:03.249Z,12.60
2019-05-13T04:25:39.475Z,12.50
2019-05-13T04:28:08.336Z,12.70
2019-05-13T04:30:43.525Z,12.60
2019-05-13T04:33:14.146Z,12.60
2019-05-13T04:35:45.995Z,12.60
2019-05-13T04:38:18.314Z,12.40
2019-05-13T04:40:52.814Z,12.40
2019-05-13T04:43:23.812Z,12.30
2019-05-13T04:45:55.452Z,12.40
2019-05-13T04:48:26.768Z,12.50
2019-05-13T04:50:58.053Z,12.50
2019-05-13T04:53:33.017Z,12.60
2019-05-13T04:56:03.304Z,12.50
2019-05-13T04:58:35.042Z,12.50
2019-05-13T05:01:48.819Z,12.50
2019-05-13T05:04:34.786Z,12.50
2019-05-13T05:07:27.595Z,12.60
2019-05-13T05:10:34.793Z,12.50
2019-05-13T05:13:21.887Z,12.60
2019-05-13T05:16:42.003Z,12.60
2019-05-13T05:19:52.540Z,12.50
2019-05-13T05:22:42.597Z,12.50
2019-05-13T05:25:22.197Z,12.50
2019-05-13T05:28:16.025Z,12.50
2019-05-13T05:31:11.411Z,12.50
2019-05-13T05:34:51.911Z,12.40
2019-05-13T05:38:07.544Z,12.40
2019-05-13T05:40:39.426Z,12.50
2019-05-13T05:43:12.574Z,12.70
2019-05-13T05:45:44.601Z,12.90
2019-05-13T05:48:17.919Z,13.00
2019-05-13T05:50:51.588Z,13.00
2019-05-13T05:53:24.948Z,13.10
2019-05-13T05:55:59.403Z,13.10
2019-05-13T05:58:31.564Z,13.20
2019-05-13T06:01:05.034Z,13.20
2019-05-13T06:03:38.670Z,13.10
2019-05-13T06:06:12.508Z,13.20
2019-05-13T06:08:44.400Z,13.20
2019-05-13T06:11:16.035Z,13.30
2019-05-13T06:13:51.550Z,13.30
2019-05-13T06:16:21.878Z,13.30
2019-05-13T06:18:53.578Z,13.30
2019-05-13T06:21:24.761Z,13.30
2019-05-13T06:23:55.961Z,13.40
2019-05-13T06:26:27.575Z,13.30
2019-05-13T06:28:58.855Z,13.30
2019-05-13T06:31:32.276Z,13.30
2019-05-13T06:34:04.167Z,13.30
2019-05-13T06:36:35.453Z,13.30
2019-05-13T06:39:08.723Z,13.40
2019-05-13T06:41:41.648Z,13.30
2019-05-13T06:44:13.402Z,13.40
2019-05-13T06:46:44.915Z,13.40
2019-05-13T06:49:16.605Z,13.30
2019-05-13T06:51:48.508Z,13.40
2019-05-13T06:54:21.918Z,13.40
2019-05-13T06:56:53.039Z,13.40
2019-05-13T06:59:24.622Z,13.40
2019-05-13T07:01:55.879Z,13.40
2019-05-13T07:04:27.187Z,13.40
2019-05-13T07:07:09.812Z,13.40
2019-05-13T07:09:32.783Z,13.40
2019-05-13T07:12:04.165Z,13.40
2019-05-13T07:14:35.864Z,13.40
2019-05-13T07:17:07.610Z,13.40
2019-05-13T07:19:37.736Z,13.40
2019-05-13T07:22:11.485Z,13.40
2019-05-13T07:24:41.829Z,13.40
2019-05-13T07:27:13.166Z,13.40
2019-05-13T07:29:44.611Z,13.30
2019-05-13T07:32:15.953Z,13.50
2019-05-13T07:34:47.225Z,13.40
2019-05-13T07:37:18.923Z,13.40
2019-05-13T07:39:52.812Z,13.40
2019-05-13T07:42:23.452Z,13.50
2019-05-13T07:44:54.749Z,13.40
2019-05-13T07:47:26.263Z,13.50
2019-05-13T07:49:57.421Z,13.40
2019-05-13T07:52:31.746Z,13.40
2019-05-13T07:55:02.026Z,13.50
2019-05-13T07:57:43.395Z,13.50
2019-05-13T08:00:15.521Z,13.50
2019-05-13T08:02:47.345Z,13.50
2019-05-13T08:05:17.630Z,13.40
2019-05-13T08:07:48.710Z,13.50
2019-05-13T08:10:21.942Z,13.50
2019-05-13T08:12:54.351Z,13.50
2019-05-13T08:15:26.203Z,13.40
2019-05-13T08:17:57.478Z,13.40
2019-05-13T08:20:28.809Z,13.40
2019-05-13T08:23:02.540Z,13.40
2019-05-13T08:25:33.398Z,13.40
2019-05-13T08:28:05.234Z,13.50
2019-05-13T08:30:37.570Z,13.50
2019-05-13T08:33:09.266Z,13.50
2019-05-13T08:35:41.717Z,13.50
2019-05-13T08:38:13.632Z,13.50
2019-05-13T08:40:45.263Z,13.50
2019-05-13T08:43:16.549Z,13.40
2019-05-13T08:45:47.869Z,13.40
2019-05-13T08:48:22.038Z,13.50
2019-05-13T08:50:52.681Z,13.50
2019-05-13T08:53:24.271Z,13.50
2019-05-13T08:55:55.472Z,13.50
2019-05-13T08:58:27.262Z,13.40
2019-05-13T09:00:59.105Z,13.40
2019-05-13T09:03:32.303Z,13.40
2019-05-13T09:06:02.984Z,13.40
2019-05-13T09:08:34.394Z,13.40
2019-05-13T09:11:06.652Z,13.40
2019-05-13T09:13:38.304Z,13.40
2019-05-13T09:16:13.152Z,13.40
2019-05-13T09:18:43.250Z,13.50
2019-05-13T09:21:14.476Z,13.50
2019-05-13T09:23:45.709Z,13.50
2019-05-13T09:26:17.649Z,13.50
2019-05-13T09:28:52.207Z,13.50
2019-05-13T09:31:24.159Z,13.50
2019-05-13T09:33:56.112Z,13.50
2019-05-13T09:36:27.390Z,13.50
2019-05-13T09:38:58.997Z,13.50
2019-05-13T09:41:32.293Z,13.50
2019-05-13T09:44:03.600Z,13.50
2019-05-13T09:46:35.846Z,13.40
2019-05-13T09:49:16.207Z,13.50
2019-05-13T09:51:41.638Z,13.50
2019-05-13T09:54:13.083Z,13.50
2019-05-13T09:56:45.094Z,13.50
2019-05-13T09:59:16.342Z,13.50
2019-05-13T10:01:48.573Z,13.50
2019-05-13T10:04:22.271Z,13.50
2019-05-13T10:06:53.374Z,13.50
2019-05-13T10:09:25.638Z,13.50
2019-05-13T10:11:57.219Z,13.40
2019-05-13T10:14:28.829Z,13.50
2019-05-13T10:17:05.789Z,13.50
2019-05-13T10:19:34.612Z,13.50
2019-05-13T10:22:06.120Z,13.40
2019-05-13T10:24:37.881Z,13.40
2019-05-13T10:27:12.213Z,13.40
2019-05-13T10:29:43.457Z,13.40
2019-05-13T10:32:13.686Z,13.40
2019-05-13T10:34:45.820Z,13.40
2019-05-13T10:37:17.277Z,13.40
2019-05-13T10:39:51.761Z,13.40
2019-05-13T10:42:22.515Z,13.40
2019-05-13T10:44:53.849Z,13.40
2019-05-13T10:47:25.238Z,13.40
2019-05-13T10:49:57.051Z,13.40
2019-05-13T10:52:28.683Z,13.50
2019-05-13T10:55:02.011Z,13.40
2019-05-13T10:57:33.372Z,13.40
2019-05-13T11:00:05.588Z,13.40
2019-05-13T11:02:37.196Z,13.50
2019-05-13T11:05:08.980Z,13.50
2019-05-13T11:07:42.076Z,13.40
2019-05-13T11:10:14.312Z,13.40
2019-05-13T11:12:44.882Z,13.50
2019-05-13T11:15:15.930Z,13.50
2019-05-13T11:17:47.641Z,13.40
2019-05-13T11:20:18.836Z,13.50
2019-05-13T11:22:52.141Z,13.40
2019-05-13T11:25:24.744Z,13.50
2019-05-13T11:27:58.437Z,13.50
2019-05-13T11:30:31.801Z,13.50
2019-05-13T11:33:03.201Z,13.50
2019-05-13T11:35:35.376Z,13.50
2019-05-13T11:38:06.681Z,13.50
2019-05-13T11:40:38.217Z,13.50
2019-05-13T11:43:12.284Z,13.60
2019-05-13T11:45:42.885Z,13.50
2019-05-13T11:48:14.588Z,13.50
2019-05-13T11:50:50.145Z,13.50
2019-05-13T11:53:34.514Z,13.50
2019-05-13T11:55:52.214Z,13.50
2019-05-13T11:58:23.812Z,13.40
2019-05-13T12:00:58.041Z,13.40
2019-05-13T12:03:32.160Z,13.40
2019-05-13T12:06:02.907Z,13.40
2019-05-13T12:08:37.994Z,13.40
2019-05-13T12:11:09.474Z,13.50
2019-05-13T12:13:42.777Z,13.50
2019-05-13T12:16:14.087Z,13.50
2019-05-13T12:18:45.534Z,13.50
2019-05-13T12:21:17.799Z,13.50
2019-05-13T12:23:52.742Z,13.60
2019-05-13T12:26:23.912Z,13.50
2019-05-13T12:28:55.708Z,13.50
2019-05-13T12:31:27.291Z,13.50
2019-05-13T12:33:58.555Z,13.50
2019-05-13T12:36:32.757Z,13.50
2019-05-13T12:39:02.763Z,13.50
2019-05-13T12:41:34.592Z,13.50
2019-05-13T12:44:06.322Z,13.50
2019-05-13T12:46:41.289Z,13.50
2019-05-13T12:49:14.276Z,13.50
2019-05-13T12:51:44.845Z,13.60
2019-05-13T12:54:16.379Z,13.50
2019-05-13T12:56:47.615Z,13.50
2019-05-13T12:59:19.775Z,13.50
2019-05-13T13:01:52.893Z,13.50
2019-05-13T13:04:24.707Z,13.50
2019-05-13T13:06:55.042Z,13.50
2019-05-13T13:09:26.737Z,13.50
2019-05-13T13:11:56.931Z,13.50
2019-05-13T13:14:36.213Z,13.50
2019-05-13T13:17:04.147Z,13.50
2019-05-13T13:19:35.722Z,13.50
2019-05-13T13:22:08.243Z,13.60
2019-05-13T13:24:48.396Z,13.50
2019-05-13T13:27:20.821Z,13.50
2019-05-13T13:29:45.651Z,13.50
2019-05-13T13:32:16.985Z,13.50
2019-05-13T13:34:48.825Z,13.50
2019-05-13T13:37:18.934Z,13.50
2019-05-13T13:39:54.692Z,13.50
2019-05-13T13:42:23.329Z,13.50
2019-05-13T13:44:54.894Z,13.50
2019-05-13T13:47:26.571Z,13.60
2019-05-13T13:49:57.795Z,13.50
2019-05-13T13:52:33.577Z,13.60
2019-05-13T13:55:08.596Z,13.60
2019-05-13T13:57:36.901Z,13.50
2019-05-13T14:00:26.370Z,13.50
2019-05-13T14:02:43.117Z,13.60
2019-05-13T14:05:15.130Z,13.60
2019-05-13T14:07:45.608Z,13.60
2019-05-13T14:10:17.337Z,13.60
2019-05-13T14:12:49.337Z,13.60
2019-05-13T14:15:21.567Z,13.60
2019-05-13T14:17:52.944Z,13.60
2019-05-13T14:20:26.583Z,13.60
2019-05-13T14:23:02.771Z,13.50
2019-05-13T14:25:34.287Z,13.60
2019-05-13T14:28:05.899Z,13.60
2019-05-13T14:30:38.217Z,13.60
2019-05-13T14:33:10.267Z,13.60
2019-05-13T14:35:41.880Z,13.50
2019-05-13T14:38:13.411Z,13.60
2019-05-13T14:40:45.490Z,13.60
2019-05-13T14:43:16.969Z,13.60
2019-05-13T14:45:48.219Z,13.60
2019-05-13T14:48:22.268Z,13.60
2019-05-13T14:50:53.003Z,13.60
2019-05-13T14:53:24.291Z,13.60
2019-05-13T14:55:55.751Z,13.60
2019-05-13T14:58:27.380Z,13.60
2019-05-13T15:01:14.765Z,13.60
2019-05-13T15:03:32.759Z,13.60
2019-05-13T15:06:04.724Z,13.60
2019-05-13T15:08:35.993Z,13.60
2019-05-13T15:11:07.786Z,13.60
2019-05-13T15:13:38.062Z,13.60
2019-05-13T15:16:09.077Z,13.60
2019-05-13T15:18:41.615Z,13.50
2019-05-13T15:21:13.366Z,13.60
2019-05-13T15:23:44.835Z,13.60
2019-05-13T15:26:16.424Z,13.60
2019-05-13T15:28:47.801Z,13.60
2019-05-13T15:31:19.196Z,13.60
2019-05-13T15:33:52.430Z,13.60
2019-05-13T15:36:23.945Z,13.60
2019-05-13T15:38:54.085Z,13.60
2019-05-13T15:41:26.167Z,13.60
2019-05-13T15:43:57.676Z,13.60
2019-05-13T15:46:29.277Z,13.60
2019-05-13T15:49:01.710Z,13.60
2019-05-13T15:51:34.717Z,13.60
2019-05-13T15:54:06.530Z,13.60
2019-05-13T15:56:38.266Z,13.60
2019-05-13T15:59:12.248Z,13.50
2019-05-13T16:01:42.809Z,13.60
2019-05-13T16:04:14.053Z,13.60
2019-05-13T16:06:45.346Z,13.60
2019-05-13T16:09:17.209Z,13.60
2019-05-13T16:11:47.704Z,13.60
2019-05-13T16:14:18.832Z,13.50
2019-05-13T16:16:50.547Z,13.60
2019-05-13T16:19:22.136Z,13.60
2019-05-13T16:21:53.721Z,13.60
2019-05-13T16:24:25.157Z,13.60
2019-05-13T16:26:56.451Z,13.60
2019-05-13T16:29:27.670Z,13.50
2019-05-13T16:32:01.343Z,13.60
2019-05-13T16:34:32.118Z,13.60
2019-05-13T16:37:03.445Z,13.60
2019-05-13T16:39:34.697Z,13.60
2019-05-13T16:42:06.572Z,13.60
2019-05-13T16:44:38.154Z,13.60
2019-05-13T16:47:12.146Z,13.60
2019-05-13T16:49:43.982Z,13.60
2019-05-13T16:52:15.637Z,13.60
2019-05-13T16:54:47.116Z,13.60
2019-05-13T16:57:18.639Z,13.60
2019-05-13T16:59:51.767Z,13.60
2019-05-13T17:02:23.057Z,13.60
2019-05-13T17:04:54.635Z,13.60
2019-05-13T17:07:26.321Z,13.60
2019-05-13T17:10:00.161Z,13.60
2019-05-13T17:12:31.722Z,13.60
2019-05-13T17:15:02.999Z,13.60
2019-05-13T17:17:33.828Z,13.60
2019-05-13T17:20:05.702Z,13.50
2019-05-13T17:22:38.007Z,13.60
2019-05-13T17:25:09.350Z,13.60
2019-05-13T17:27:41.871Z,13.50
2019-05-13T17:30:14.089Z,13.60
2019-05-13T17:32:45.357Z,13.60
2019-05-13T17:35:17.303Z,13.60
2019-05-13T17:37:47.474Z,13.60
2019-05-13T17:40:18.565Z,13.60
2019-05-13T17:42:50.038Z,13.60
2019-05-13T17:45:21.979Z,13.60
2019-05-13T17:47:53.608Z,13.60
2019-05-13T17:50:25.218Z,13.60
2019-05-13T17:52:56.835Z,13.60
2019-05-13T17:55:28.139Z,13.60
2019-05-13T17:58:01.418Z,13.60
2019-05-13T18:00:33.590Z,13.60
2019-05-13T18:03:04.872Z,13.60
2019-05-13T18:05:36.164Z,13.60
2019-05-13T18:08:07.364Z,13.60
2019-05-13T18:10:39.233Z,13.60
2019-05-13T18:13:12.623Z,13.60
2019-05-13T18:15:45.054Z,13.60
2019-05-13T18:18:16.646Z,13.70
2019-05-13T18:20:48.208Z,13.60
2019-05-13T18:23:19.860Z,13.60
2019-05-13T18:25:51.600Z,13.60
2019-05-13T18:28:28.433Z,13.60
2019-05-13T18:30:55.652Z,13.60
2019-05-13T18:33:27.411Z,13.60
2019-05-13T18:35:57.632Z,13.60
2019-05-13T18:38:31.131Z,13.60
2019-05-13T18:41:02.482Z,13.60
2019-05-13T18:43:34.080Z,13.60
2019-05-13T18:46:05.551Z,13.60
2019-05-13T18:48:37.069Z,13.60
2019-05-13T18:51:08.528Z,13.60
2019-05-13T18:53:41.444Z,13.70
2019-05-13T18:56:14.358Z,13.60
2019-05-13T18:58:45.977Z,13.70
2019-05-13T19:01:17.236Z,13.70
2019-05-13T19:03:48.696Z,13.60
2019-05-13T19:06:22.189Z,13.70
2019-05-13T19:08:53.206Z,13.70
2019-05-13T19:11:24.524Z,13.60
2019-05-13T19:13:55.762Z,13.60
2019-05-13T19:16:27.617Z,13.70
2019-05-13T19:19:11.835Z,13.60
2019-05-13T19:21:32.525Z,13.70
2019-05-13T19:24:03.747Z,13.70
2019-05-13T19:26:34.976Z,13.60
2019-05-13T19:29:06.133Z,13.60
2019-05-13T19:31:37.324Z,13.60
2019-05-13T19:34:08.495Z,13.60
2019-05-13T19:36:40.311Z,13.70
2019-05-13T19:39:11.390Z,13.70
2019-05-13T19:41:43.265Z,13.60
2019-05-13T19:44:13.403Z,13.70
2019-05-13T19:46:44.380Z,13.70
2019-05-13T19:49:28.748Z,13.70
2019-05-13T19:51:48.829Z,13.70
2019-05-13T19:54:22.263Z,13.60
2019-05-13T19:56:53.306Z,13.60
2019-05-13T19:59:25.319Z,13.40
2019-05-13T20:01:56.914Z,13.40
2019-05-13T20:04:31.141Z,13.50
2019-05-13T20:07:02.160Z,13.50
2019-05-13T20:09:34.047Z,13.60
2019-05-13T20:12:04.512Z,13.50
2019-05-13T20:14:35.868Z,13.40
2019-05-13T20:17:07.694Z,13.40
2019-05-13T20:19:47.775Z,13.30
2019-05-13T20:22:13.934Z,13.30
2019-05-13T20:24:45.368Z,13.20
2019-05-13T20:27:16.876Z,13.20
2019-05-13T20:29:51.056Z,13.10
2019-05-13T20:32:22.353Z,13.00
2019-05-13T20:34:54.432Z,13.00
2019-05-13T20:37:25.983Z,13.00
2019-05-13T20:39:57.189Z,13.00
2019-05-13T20:42:28.958Z,13.00
2019-05-13T20:45:02.425Z,12.80
2019-05-13T20:47:34.809Z,12.90
2019-05-13T20:50:06.825Z,12.90
2019-05-13T20:52:38.013Z,13.00
2019-05-13T20:55:09.861Z,13.10
2019-05-13T20:57:41.720Z,13.00
2019-05-13T21:00:13.424Z,13.10
2019-05-13T21:02:43.588Z,13.10
2019-05-13T21:05:16.202Z,13.10
2019-05-13T21:07:47.667Z,13.00
2019-05-13T21:10:21.074Z,13.10
2019-05-13T21:12:52.178Z,13.10
2019-05-13T21:15:24.360Z,13.10
2019-05-13T21:17:55.651Z,13.00
2019-05-13T21:20:26.933Z,13.00
2019-05-13T21:22:58.165Z,13.10
2019-05-13T21:25:31.103Z,13.20
2019-05-13T21:28:02.642Z,13.30
2019-05-13T21:30:33.939Z,13.40
2019-05-13T21:33:05.470Z,13.40
2019-05-13T21:35:37.015Z,13.40
2019-05-13T21:38:08.330Z,13.50
2019-05-13T21:40:41.557Z,13.50
2019-05-13T21:43:12.879Z,13.50
2019-05-13T21:45:44.426Z,13.50
2019-05-13T21:48:16.001Z,13.50
2019-05-13T21:50:47.607Z,13.50
2019-05-13T21:53:24.158Z,13.50
2019-05-13T21:55:52.617Z,13.50
2019-05-13T21:58:24.150Z,13.50
2019-05-13T22:00:56.111Z,13.50
2019-05-13T22:03:28.380Z,13.50
2019-05-13T22:06:02.001Z,13.50
2019-05-13T22:08:32.909Z,13.50
2019-05-13T22:11:04.127Z,13.50
2019-05-13T22:13:36.269Z,13.50
2019-05-13T22:16:07.523Z,13.50
2019-05-13T22:18:38.749Z,13.50
2019-05-13T22:21:11.823Z,13.50
2019-05-13T22:23:44.116Z,13.50
2019-05-13T22:26:15.289Z,13.50
2019-05-13T22:28:46.526Z,13.50
2019-05-13T22:31:18.215Z,13.50
2019-05-13T22:33:51.813Z,13.50
2019-05-13T22:36:23.480Z,13.50
2019-05-13T22:38:54.657Z,13.50
2019-05-13T22:41:25.889Z,13.50
2019-05-13T22:43:58.995Z,13.50
2019-05-13T22:46:32.224Z,13.50
2019-05-13T22:49:03.594Z,13.50
2019-05-13T22:51:35.155Z,13.50
2019-05-13T22:54:06.404Z,13.50
2019-05-13T22:56:37.643Z,13.50
2019-05-13T22:59:08.809Z,13.50
2019-05-13T23:01:41.824Z,13.50
2019-05-13T23:04:13.517Z,13.50
2019-05-13T23:06:45.005Z,13.50
2019-05-13T23:09:16.188Z,13.50
2019-05-13T23:11:47.894Z,13.50
2019-05-13T23:14:21.828Z,13.50
2019-05-13T23:16:52.372Z,13.40
2019-05-13T23:19:23.816Z,13.50
2019-05-13T23:21:55.310Z,13.50
2019-05-13T23:24:26.500Z,13.50
2019-05-13T23:26:57.732Z,13.50
2019-05-13T23:29:31.725Z,13.50
2019-05-13T23:32:02.260Z,13.50
2019-05-13T23:34:33.449Z,13.50
2019-05-13T23:37:04.614Z,13.50
2019-05-13T23:39:35.835Z,13.50
2019-05-13T23:42:07.083Z,13.50
2019-05-13T23:44:38.521Z,13.50
2019-05-13T23:47:11.432Z,13.50
2019-05-13T23:49:42.559Z,13.50
2019-05-13T23:52:13.742Z,13.50
2019-05-13T23:54:44.908Z,13.40
2019-05-13T23:57:16.334Z,13.40
2019-05-13T23:59:50.941Z,13.50
